»·PEaware :: UCA2674 KSBA-KSAN

UCA2674 :: KSBA-KSAN

FLIGHT INFORMATION

Flight Status: Arrived
Operator: Unknown
More flights by this operator :: More flights under this callsign
Pilot: Walter H. (552)
Aircraft: Unknown
(DHC8)
More flights by this aircraft type
Origin: KSBA Santa Barbara Mun
United States
Destination: KSAN San Diego Intl-Lindbergh
United States
More flights between these airports :: More routes between these airports
Route: SBAN29
File this flight plan on PilotEdge
Remarks:
Altitude:
(Current/Filed)
9,000ft
Speed:
(Current/Filed)
245kts
Departed: 14-Jul-18 11:23 AM
Arrived: 14-Jul-18 12:16 PM
Distance/Time
Traveled:
167nm/0:53
Distance/Time
To Go:
Arrived

Flight Plot

Page will automatically refresh every two minutes.


Map Options




Map Legend


Flown Route
Filed Route
Departure Airport
Arrival Airport
Navaid (VOR, NDB)
Fix

Horizontal Profiles

Position Reports

Time Latitude Longitude Heading Altitude Ground
Speed
14-Jul-18 11:05 34.426027 -119.836647 189 17ft 0kts
14-Jul-18 11:06 34.426027 -119.836647 189 17ft 0kts
14-Jul-18 11:07 34.426027 -119.836647 189 17ft 0kts
14-Jul-18 11:08 34.426027 -119.836647 189 17ft 0kts
14-Jul-18 11:09 34.426027 -119.836647 189 17ft 0kts
14-Jul-18 11:10 34.426027 -119.836647 189 17ft 0kts
14-Jul-18 11:11 34.426027 -119.836647 189 17ft 0kts
14-Jul-18 11:12 34.426027 -119.836647 189 17ft 0kts
14-Jul-18 11:13 34.426027 -119.836647 189 17ft 0kts
14-Jul-18 11:14 34.426027 -119.836647 189 17ft 0kts
14-Jul-18 11:15 34.426027 -119.836647 189 17ft 0kts
14-Jul-18 11:16 34.426111 -119.836628 190 17ft 3kts
14-Jul-18 11:17 34.426532 -119.836505 195 17ft 0kts
14-Jul-18 11:18 34.426532 -119.836505 195 17ft 0kts
14-Jul-18 11:19 34.426521 -119.836502 184 17ft 0kts
14-Jul-18 11:20 34.427034 -119.835336 23 17ft 0kts
14-Jul-18 11:21 34.427034 -119.835336 23 17ft 0kts
14-Jul-18 11:22 34.427046 -119.835330 23 17ft 0kts
14-Jul-18 11:23 34.427898 -119.836054 268 17ft 39kts
14-Jul-18 11:24 34.428398 -119.882658 270 1657ft 171kts
14-Jul-18 11:25 34.427238 -119.945085 268 3669ft 226kts
14-Jul-18 11:26 34.425600 -120.025966 269 3041ft 237kts
14-Jul-18 11:27 34.420460 -120.101667 238 3047ft 220kts
14-Jul-18 11:28 34.364795 -120.103094 153 4040ft 232kts
14-Jul-18 11:29 34.306615 -120.069247 153 5026ft 238kts
14-Jul-18 11:30 34.257549 -120.040773 153 5843ft 239kts
14-Jul-18 11:31 34.188053 -120.000212 146 6997ft 237kts
14-Jul-18 11:32 34.147304 -119.930148 119 8019ft 280kts
14-Jul-18 11:33 34.107182 -119.850295 119 8893ft 286kts
14-Jul-18 11:34 34.065190 -119.766651 119 8999ft 308kts
14-Jul-18 11:35 34.027806 -119.692326 119 9003ft 315kts
14-Jul-18 11:36 33.984597 -119.606583 119 9005ft 290kts
14-Jul-18 11:37 33.942445 -119.523239 119 9003ft 294kts
14-Jul-18 11:38 33.901648 -119.442574 120 9003ft 294kts
14-Jul-18 11:39 33.859821 -119.360228 120 9007ft 294kts
14-Jul-18 11:40 33.818002 -119.277936 120 9013ft 294kts
14-Jul-18 11:41 33.776535 -119.196543 120 9015ft 294kts
14-Jul-18 11:42 33.734143 -119.113626 120 9014ft 294kts
14-Jul-18 11:43 33.691771 -119.030916 121 9017ft 294kts
14-Jul-18 11:44 33.649510 -118.948587 121 9020ft 294kts
14-Jul-18 11:45 33.607240 -118.866582 121 9024ft 294kts
14-Jul-18 11:46 33.564568 -118.783891 121 8989ft 295kts
14-Jul-18 11:47 33.522822 -118.703320 121 8974ft 295kts
14-Jul-18 11:48 33.480681 -118.622188 121 8981ft 294kts
14-Jul-18 11:49 33.437583 -118.539413 122 8989ft 294kts
14-Jul-18 11:50 33.394595 -118.457143 122 8996ft 293kts
14-Jul-18 11:51 33.362470 -118.369834 105 8999ft 293kts
14-Jul-18 11:52 33.341341 -118.276746 105 8994ft 293kts
14-Jul-18 11:53 33.319563 -118.184560 105 8986ft 293kts
14-Jul-18 11:54 33.297671 -118.092215 105 8974ft 293kts
14-Jul-18 11:55 33.275990 -118.001006 106 8965ft 293kts
14-Jul-18 11:56 33.254372 -117.909774 106 8957ft 293kts
14-Jul-18 11:57 33.232286 -117.818037 106 8936ft 293kts
14-Jul-18 11:58 33.210426 -117.727097 106 8934ft 293kts
14-Jul-18 11:59 33.188689 -117.636875 106 8935ft 293kts
14-Jul-18 12:00 33.166385 -117.544663 106 8954ft 292kts
14-Jul-18 12:01 33.143828 -117.452595 109 8986ft 291kts
14-Jul-18 12:02 33.086332 -117.389560 140 8171ft 285kts
14-Jul-18 12:03 33.031151 -117.331231 139 7184ft 261kts
14-Jul-18 12:04 32.979453 -117.276388 138 6206ft 250kts
14-Jul-18 12:05 32.930938 -117.224816 138 5992ft 226kts
14-Jul-18 12:06 32.885095 -117.176415 138 5984ft 219kts
14-Jul-18 12:07 32.840859 -117.129678 138 5980ft 219kts
14-Jul-18 12:08 32.795581 -117.082055 138 5978ft 219kts
14-Jul-18 12:09 32.769133 -117.023173 107 5967ft 192kts
14-Jul-18 12:10 32.750867 -116.967506 135 4657ft 159kts
14-Jul-18 12:11 32.713034 -116.956494 197 4796ft 149kts
14-Jul-18 12:12 32.688391 -116.999280 274 3232ft 160kts
14-Jul-18 12:13 32.698171 -117.044606 287 2224ft 143kts
14-Jul-18 12:14 32.709171 -117.088517 286 1733ft 137kts
14-Jul-18 12:15 32.719440 -117.131059 285 983ft 126kts
14-Jul-18 12:16 32.728520 -117.168957 285 345ft 110kts
14-Jul-18 12:17 32.734323 -117.192851 286 22ft 14kts
14-Jul-18 12:18 32.734143 -117.195115 233 22ft 0kts
14-Jul-18 12:19 32.734143 -117.195115 233 22ft 0kts
14-Jul-18 12:20 32.733307 -117.195595 221 22ft 0kts
14-Jul-18 12:21 32.733307 -117.195595 221 22ft 0kts
14-Jul-18 12:22 32.733307 -117.195595 221 22ft 0kts
14-Jul-18 12:23 32.733307 -117.195595 221 22ft 0kts
14-Jul-18 12:24 32.733307 -117.195595 221 22ft 0kts

Navigation Log

Ident Type
Flight plan parsing failed, navigation log unavailable